Time;durP1;ratioP1;P1;durP2;ratioP2;P2;SDS_P1;SDS_P2;PMS_P1;PMS_P2;Temp;Humidity;BMP_temperature;BMP_pressure;BME280_temperature;BME280_humidity;BME280_pressure;Samples;Min_cycle;Max_cycle;Signal;HPM_P1;HPM_P2
2022/02/06 00:01:17;;;;;;;6.73;3.03;;;6.60;99.90;;;;;;5054070;28;20432;-48
2022/02/06 00:03:43;;;;;;;4.03;2.40;;;6.60;99.90;;;;;;5054121;28;20466;-47
2022/02/06 00:06:12;;;;;;;6.50;3.20;;;6.50;99.90;;;;;;5053800;28;20799;-46
2022/02/06 00:08:40;;;;;;;4.20;2.90;;;6.40;99.90;;;;;;5053753;28;20442;-46
2022/02/06 00:11:06;;;;;;;7.83;2.83;;;6.50;99.90;;;;;;5052666;28;20415;-47
2022/02/06 00:13:33;;;;;;;5.60;3.07;;;6.50;99.90;;;;;;5053745;28;20432;-47
2022/02/06 00:16:00;;;;;;;4.13;2.70;;;6.50;99.90;;;;;;5053929;28;20410;-46
2022/02/06 00:18:26;;;;;;;7.93;3.00;;;6.40;99.90;;;;;;5053183;28;20959;-46
2022/02/06 00:20:56;;;;;;;5.37;2.67;;;6.50;99.90;;;;;;5053792;28;20433;-46
2022/02/06 00:23:27;;;;;;;6.17;2.37;;;6.50;99.90;;;;;;5053330;28;20481;-46
2022/02/06 00:25:59;;;;;;;5.90;2.73;;;6.50;99.90;;;;;;5053780;28;20514;-46
2022/02/06 00:28:37;;;;;;;4.17;2.83;;;6.50;99.90;;;;;;5053118;28;20447;-46
2022/02/06 00:31:14;;;;;;;7.10;2.93;;;6.50;99.90;;;;;;5053964;28;20784;-46
2022/02/06 00:33:49;;;;;;;11.83;2.87;;;6.50;99.90;;;;;;5053236;28;20466;-47
2022/02/06 00:39:04;;;;;;;3.57;2.37;;;6.50;99.90;;;;;;5053071;28;20455;-48
2022/02/06 00:41:32;;;;;;;6.20;2.70;;;6.50;99.90;;;;;;5053729;28;20966;-47
2022/02/06 00:44:02;;;;;;;9.20;3.50;;;6.50;99.90;;;;;;5053684;28;20556;-47
2022/02/06 00:46:29;;;;;;;3.90;2.53;;;6.60;99.90;;;;;;5053140;28;20470;-47
2022/02/06 00:48:58;;;;;;;5.70;2.40;;;6.60;99.90;;;;;;5052399;28;20528;-47
2022/02/06 00:51:32;;;;;;;3.67;2.30;;;6.60;99.90;;;;;;5053147;28;20412;-47
2022/02/06 00:53:59;;;;;;;5.83;2.80;;;6.60;99.90;;;;;;5052892;28;20517;-47
2022/02/06 00:56:27;;;;;;;11.10;2.60;;;6.60;99.90;;;;;;5053401;28;20910;-48
2022/02/06 00:58:54;;;;;;;2.30;2.00;;;6.60;99.90;;;;;;5052999;28;20411;-47
2022/02/06 01:01:20;;;;;;;3.10;2.17;;;6.70;99.90;;;;;;5053162;28;20440;-48
2022/02/06 01:03:47;;;;;;;5.33;2.60;;;6.50;99.90;;;;;;5053047;28;20489;-47
2022/02/06 01:06:13;;;;;;;3.83;2.30;;;6.70;99.90;;;;;;5053168;28;20437;-47
2022/02/06 01:08:41;;;;;;;5.83;2.53;;;6.70;99.90;;;;;;5052612;28;20427;-47
2022/02/06 01:11:10;;;;;;;4.03;2.83;;;6.70;99.90;;;;;;5052796;28;20774;-48
2022/02/06 01:13:49;;;;;;;2.57;1.90;;;6.70;99.90;;;;;;5052554;28;20428;-48
2022/02/06 01:16:20;;;;;;;4.37;2.87;;;6.70;99.90;;;;;;5052404;28;20755;-47
2022/02/06 01:18:54;;;;;;;4.07;2.70;;;6.80;99.90;;;;;;5052524;28;20537;-48
2022/02/06 01:21:30;;;;;;;3.50;2.03;;;6.80;99.90;;;;;;5051100;28;20449;-47
2022/02/06 01:24:01;;;;;;;4.80;2.40;;;6.80;99.90;;;;;;5052548;28;20451;-47
2022/02/06 01:26:35;;;;;;;5.13;2.70;;;6.80;99.90;;;;;;5052586;28;20429;-47
2022/02/06 01:29:12;;;;;;;7.97;3.10;;;6.80;99.90;;;;;;5052077;28;20894;-47
2022/02/06 01:31:50;;;;;;;2.90;1.70;;;6.80;99.90;;;;;;5052413;28;20891;-47
2022/02/06 01:34:21;;;;;;;4.37;2.37;;;6.90;99.90;;;;;;5052183;28;20875;-47
2022/02/06 01:37:01;;;;;;;5.10;1.83;;;6.90;99.90;;;;;;5052329;28;20415;-47
2022/02/06 01:39:42;;;;;;;4.13;2.53;;;6.90;99.90;;;;;;5052238;28;20433;-48
2022/02/06 01:42:15;;;;;;;5.63;2.30;;;6.90;99.90;;;;;;5052695;28;20444;-47
2022/02/06 01:44:55;;;;;;;3.40;2.43;;;6.90;99.90;;;;;;5051875;28;20455;-47
2022/02/06 02:01:21;;;;;;;3.13;1.87;;;6.90;99.90;;;;;;5051849;28;20519;-45
2022/02/06 02:03:55;;;;;;;7.97;2.80;;;6.90;99.90;;;;;;5051634;28;21031;-46
2022/02/06 02:06:48;;;;;;;5.70;2.23;;;6.90;99.90;;;;;;5051819;28;20926;-48
2022/02/06 02:15:30;;;;;;;5.20;2.10;;;6.80;99.90;;;;;;5088824;28;20570;-46
2022/02/06 02:18:11;;;;;;;7.00;2.60;;;6.90;99.90;;;;;;5088880;28;21054;-47
2022/02/06 02:20:58;;;;;;;3.27;1.90;;;6.60;99.90;;;;;;5088341;28;20425;-46
2022/02/06 02:23:48;;;;;;;3.83;1.77;;;6.90;99.90;;;;;;5089201;28;20422;-47
2022/02/06 02:26:44;;;;;;;6.20;1.80;;;6.90;99.90;;;;;;5089452;28;20405;-47
2022/02/06 02:43:34;;;;;;;4.13;2.00;;;6.90;99.90;;;;;;5068275;28;20584;-47
2022/02/06 02:46:07;;;;;;;6.43;2.10;;;6.90;99.90;;;;;;5083095;28;20478;-47
2022/02/06 02:48:35;;;;;;;8.70;2.37;;;6.80;99.90;;;;;;5088803;28;20422;-46
2022/02/06 02:51:06;;;;;;;5.37;2.40;;;6.80;99.90;;;;;;5089638;28;20438;-45
2022/02/06 02:53:38;;;;;;;6.40;2.47;;;6.60;99.90;;;;;;5082117;28;20553;-46
2022/02/06 02:56:17;;;;;;;4.10;2.23;;;6.80;99.90;;;;;;5068973;28;20444;-46
2022/02/06 02:58:52;;;;;;;6.10;2.10;;;6.70;99.90;;;;;;5067982;28;20443;-46
2022/02/06 03:01:26;;;;;;;4.53;1.90;;;6.70;99.90;;;;;;5068090;28;20434;-47
2022/02/06 03:03:53;;;;;;;5.40;2.00;;;6.50;99.90;;;;;;5067928;28;20479;-47
2022/02/06 03:06:19;;;;;;;5.00;2.20;;;6.70;99.90;;;;;;5067968;28;20468;-47
2022/02/06 03:08:49;;;;;;;3.20;2.07;;;6.70;99.90;;;;;;5067894;28;20403;-47
2022/02/06 03:11:15;;;;;;;5.53;2.07;;;6.70;99.90;;;;;;5068004;28;20410;-47
2022/02/06 03:13:49;;;;;;;2.63;1.80;;;6.70;99.90;;;;;;5067548;28;20462;-47
2022/02/06 03:16:21;;;;;;;3.33;1.80;;;6.70;99.90;;;;;;5067797;28;20447;-47
2022/02/06 03:18:55;;;;;;;5.77;2.23;;;6.70;99.90;;;;;;5067607;28;20938;-47
2022/02/06 03:21:25;;;;;;;3.70;1.77;;;6.70;99.90;;;;;;5067395;28;20471;-47
2022/02/06 03:23:56;;;;;;;2.90;1.70;;;6.70;99.90;;;;;;5067255;28;20459;-47
2022/02/06 03:26:24;;;;;;;3.23;1.70;;;6.70;99.90;;;;;;5053477;28;20493;-46
2022/02/06 03:28:53;;;;;;;3.40;2.30;;;6.60;99.90;;;;;;5053544;28;20795;-47
2022/02/06 03:31:20;;;;;;;3.37;2.30;;;6.60;99.90;;;;;;5053826;28;20532;-47
2022/02/06 03:33:50;;;;;;;3.90;1.90;;;6.60;99.90;;;;;;5053800;28;20484;-47
2022/02/06 03:36:17;;;;;;;5.33;2.07;;;6.60;99.90;;;;;;5053955;28;20783;-47
2022/02/06 03:38:45;;;;;;;4.37;1.93;;;6.60;99.90;;;;;;5053487;28;20447;-46
2022/02/06 03:41:15;;;;;;;5.70;2.10;;;6.60;99.90;;;;;;5053746;28;20407;-47
2022/02/06 03:43:51;;;;;;;4.03;2.20;;;6.60;99.90;;;;;;5053915;28;20468;-47
2022/02/06 03:46:24;;;;;;;3.80;2.03;;;6.60;99.90;;;;;;5071415;28;20443;-47
2022/02/06 03:48:54;;;;;;;5.13;2.10;;;6.50;99.90;;;;;;5073481;28;20443;-47
2022/02/06 03:51:23;;;;;;;7.13;2.10;;;6.60;99.90;;;;;;5074107;28;20896;-47
2022/02/06 03:53:53;;;;;;;5.20;2.40;;;6.60;99.90;;;;;;5064394;28;20845;-47
2022/02/06 03:56:22;;;;;;;11.83;2.93;;;6.60;99.90;;;;;;5053505;28;20407;-47
2022/02/06 03:58:49;;;;;;;3.80;1.93;;;6.60;99.90;;;;;;5053102;28;20476;-47
2022/02/06 04:01:16;;;;;;;4.43;2.30;;;6.60;99.90;;;;;;5053426;28;20432;-46
2022/02/06 04:03:43;;;;;;;4.03;2.07;;;6.30;99.90;;;;;;5053110;28;20918;-47
2022/02/06 04:06:09;;;;;;;5.07;2.93;;;6.60;99.90;;;;;;5053146;28;20441;-46
2022/02/06 04:08:38;;;;;;;6.70;2.67;;;6.50;99.90;;;;;;5052985;28;20440;-47
2022/02/06 04:11:08;;;;;;;5.93;2.23;;;6.60;99.90;;;;;;5053187;28;20422;-47
2022/02/06 04:13:42;;;;;;;3.10;2.00;;;6.50;99.90;;;;;;5053270;28;20467;-47
2022/02/06 04:16:14;;;;;;;3.27;1.90;;;6.40;99.90;;;;;;5053051;28;20941;-47
2022/02/06 04:18:50;;;;;;;8.33;3.03;;;6.50;99.90;;;;;;5052917;28;20843;-47
2022/02/06 04:21:16;;;;;;;11.00;3.07;;;6.50;99.90;;;;;;5053070;28;20447;-46
2022/02/06 04:23:43;;;;;;;6.33;2.60;;;6.50;99.90;;;;;;5053125;28;20427;-47
2022/02/06 04:26:09;;;;;;;5.27;2.53;;;6.40;99.90;;;;;;5053443;28;20505;-47
2022/02/06 04:28:37;;;;;;;4.90;3.00;;;6.50;99.90;;;;;;5052371;28;20444;-47
2022/02/06 04:31:04;;;;;;;5.00;2.27;;;6.50;99.90;;;;;;5053262;28;20436;-47
2022/02/06 04:33:31;;;;;;;7.47;2.87;;;6.50;99.90;;;;;;5052536;28;20451;-47
2022/02/06 04:36:00;;;;;;;8.93;3.80;;;6.50;99.90;;;;;;5051946;28;20433;-47
2022/02/06 04:38:41;;;;;;;4.03;2.87;;;6.50;99.90;;;;;;5051797;28;20557;-47
2022/02/06 04:41:22;;;;;;;5.37;2.53;;;6.50;99.90;;;;;;5052551;28;20925;-47
2022/02/06 04:44:11;;;;;;;7.90;2.67;;;6.50;99.90;;;;;;5052381;28;20463;-46
2022/02/06 04:47:17;;;;;;;4.57;2.43;;;6.50;99.90;;;;;;5053000;28;20441;-47
2022/02/06 04:50:15;;;;;;;3.53;1.90;;;6.50;99.90;;;;;;5051855;28;20414;-47
2022/02/06 04:53:07;;;;;;;7.27;3.03;;;6.50;99.90;;;;;;5052171;28;20520;-47
2022/02/06 05:15:06;;;;;;;4.57;2.50;;;6.50;99.90;;;;;;5051983;28;20727;-47
2022/02/06 05:17:54;;;;;;;3.30;2.63;;;6.50;99.90;;;;;;5052335;28;20443;-47
2022/02/06 05:21:00;;;;;;;3.87;2.50;;;6.50;99.90;;;;;;5051726;28;20441;-47
2022/02/06 05:23:45;;;;;;;3.20;2.50;;;6.60;99.90;;;;;;5050661;28;20995;-47
2022/02/06 05:28:58;;;;;;;7.90;2.10;;;6.50;99.90;;;;;;5049465;28;20508;-47
2022/02/06 05:31:35;;;;;;;5.37;2.70;;;6.60;99.90;;;;;;5052031;28;20833;-46
2022/02/06 05:34:04;;;;;;;7.73;2.83;;;6.60;99.90;;;;;;5051602;28;20459;-47
2022/02/06 05:36:30;;;;;;;5.10;3.20;;;6.60;99.90;;;;;;5051516;28;20451;-47
2022/02/06 05:38:57;;;;;;;6.97;2.60;;;6.60;99.90;;;;;;5051049;28;20412;-47
2022/02/06 05:41:24;;;;;;;4.10;2.33;;;6.60;99.90;;;;;;5051570;28;20417;-47
2022/02/06 05:43:51;;;;;;;3.50;2.60;;;6.60;99.90;;;;;;5051448;28;20523;-47
2022/02/06 05:46:18;;;;;;;5.73;2.53;;;6.60;99.90;;;;;;5068781;28;20445;-47
2022/02/06 05:48:44;;;;;;;4.40;2.63;;;6.60;99.90;;;;;;5070805;28;20453;-47
2022/02/06 05:51:14;;;;;;;4.80;2.30;;;6.50;99.90;;;;;;5071396;28;20956;-46
2022/02/06 05:53:41;;;;;;;6.00;2.80;;;6.60;99.90;;;;;;5063207;28;20488;-46
2022/02/06 05:56:08;;;;;;;10.80;2.97;;;6.60;99.90;;;;;;5051282;28;20408;-47
2022/02/06 05:58:35;;;;;;;3.07;2.33;;;6.60;99.90;;;;;;5051036;28;20440;-46
2022/02/06 06:01:01;;;;;;;4.17;2.87;;;6.40;99.90;;;;;;5051488;28;20436;-47
2022/02/06 06:03:28;;;;;;;6.90;2.40;;;6.60;99.90;;;;;;5051799;28;20463;-47
2022/02/06 06:05:54;;;;;;;7.23;2.50;;;6.60;99.90;;;;;;5051212;28;20788;-47
2022/02/06 06:08:22;;;;;;;5.73;3.13;;;6.50;99.90;;;;;;5050969;28;20438;-47
2022/02/06 06:10:49;;;;;;;3.90;2.50;;;6.70;99.90;;;;;;5051084;28;20896;-46
2022/02/06 06:13:17;;;;;;;4.20;2.20;;;6.60;99.90;;;;;;5051008;28;20451;-47
2022/02/06 06:15:43;;;;;;;6.00;2.20;;;6.70;99.90;;;;;;5051632;28;20450;-47
2022/02/06 06:18:13;;;;;;;2.60;2.10;;;6.60;99.90;;;;;;5051017;28;20972;-47
2022/02/06 06:20:42;;;;;;;4.23;2.13;;;6.60;99.90;;;;;;5050578;28;20432;-47
2022/02/06 06:23:08;;;;;;;5.03;2.60;;;6.70;99.90;;;;;;5050931;28;20471;-47
2022/02/06 06:25:38;;;;;;;6.50;2.50;;;6.50;99.90;;;;;;5051849;28;20407;-47
2022/02/06 06:28:06;;;;;;;4.10;2.40;;;6.50;99.90;;;;;;5051097;28;20463;-46
2022/02/06 06:30:35;;;;;;;6.47;2.33;;;6.60;99.90;;;;;;5050684;28;20439;-47
2022/02/06 06:33:01;;;;;;;4.93;2.27;;;6.60;99.90;;;;;;5051109;28;20467;-46
2022/02/06 06:35:29;;;;;;;4.53;2.03;;;6.70;99.90;;;;;;5051448;28;20455;-46
2022/02/06 06:37:58;;;;;;;5.53;1.90;;;6.60;99.90;;;;;;5050968;28;20807;-46
2022/02/06 06:40:25;;;;;;;4.17;2.30;;;6.60;99.90;;;;;;5050766;28;20912;-46
2022/02/06 06:42:53;;;;;;;3.33;2.47;;;6.70;99.90;;;;;;5050842;28;20434;-47
2022/02/06 06:45:19;;;;;;;7.53;2.77;;;6.60;99.90;;;;;;5060658;28;20444;-46
2022/02/06 06:47:51;;;;;;;4.10;2.00;;;6.60;99.90;;;;;;5071229;28;20608;-46
2022/02/06 06:50:18;;;;;;;7.80;2.20;;;6.60;99.90;;;;;;5070669;28;20473;-46
2022/02/06 06:52:45;;;;;;;4.40;2.67;;;6.60;99.90;;;;;;5070474;28;20455;-46
2022/02/06 06:55:15;;;;;;;4.63;1.73;;;6.60;99.90;;;;;;5050883;28;20550;-46
2022/02/06 06:57:49;;;;;;;4.40;2.20;;;6.70;99.90;;;;;;5050887;28;20447;-47
2022/02/06 07:00:25;;;;;;;4.57;2.30;;;6.70;99.90;;;;;;5051929;28;20430;-47
2022/02/06 07:02:51;;;;;;;4.73;2.37;;;6.70;99.90;;;;;;5054565;28;20542;-46
2022/02/06 07:05:18;;;;;;;10.87;2.20;;;6.70;99.90;;;;;;5054286;28;20485;-46
2022/02/06 07:07:45;;;;;;;4.10;2.53;;;6.70;99.90;;;;;;5054318;28;20482;-46
2022/02/06 07:10:12;;;;;;;5.03;2.20;;;6.70;99.90;;;;;;5053847;28;20433;-46
2022/02/06 07:12:39;;;;;;;3.97;2.87;;;6.70;99.90;;;;;;5054294;28;20450;-46
2022/02/06 07:15:06;;;;;;;4.70;1.90;;;6.80;99.90;;;;;;5054407;28;20480;-46
2022/02/06 07:17:34;;;;;;;4.10;2.53;;;6.80;99.90;;;;;;5054187;28;20403;-46
2022/02/06 07:20:02;;;;;;;4.80;2.20;;;6.80;99.90;;;;;;5053766;28;20443;-46
2022/02/06 07:22:34;;;;;;;3.63;2.10;;;6.80;99.90;;;;;;5053968;28;20478;-46
2022/02/06 07:25:01;;;;;;;5.43;1.80;;;6.80;99.90;;;;;;5054197;28;20860;-46
2022/02/06 07:27:30;;;;;;;3.53;2.13;;;6.60;99.90;;;;;;5054117;28;20546;-46
2022/02/06 07:29:57;;;;;;;4.20;2.50;;;6.80;99.90;;;;;;5053554;28;20420;-46
2022/02/06 07:32:24;;;;;;;5.60;2.30;;;6.90;99.90;;;;;;5053661;28;20495;-46
2022/02/06 07:34:52;;;;;;;5.27;1.90;;;6.80;99.90;;;;;;5053701;28;20520;-46
2022/02/06 07:37:19;;;;;;;3.17;1.70;;;7.00;99.90;;;;;;5053782;28;20408;-46
2022/02/06 07:39:45;;;;;;;4.60;1.83;;;7.00;99.90;;;;;;5053453;28;20911;-46
2022/02/06 07:42:13;;;;;;;4.87;2.10;;;7.00;99.90;;;;;;5054756;28;20452;-46
2022/02/06 07:44:48;;;;;;;4.13;1.97;;;7.00;99.90;;;;;;5057473;28;20424;-46
2022/02/06 07:47:18;;;;;;;6.17;2.03;;;7.00;99.90;;;;;;5074450;28;20520;-46
2022/02/06 07:49:48;;;;;;;2.73;1.73;;;7.00;99.90;;;;;;5073454;28;20440;-47
2022/02/06 07:52:17;;;;;;;2.00;1.80;;;7.00;99.90;;;;;;5072656;28;20423;-46
2022/02/06 07:54:43;;;;;;;4.37;1.97;;;7.10;99.90;;;;;;5056625;28;20461;-46
2022/02/06 07:57:10;;;;;;;3.47;1.80;;;7.10;99.90;;;;;;5053590;28;20407;-48
2022/02/06 07:59:37;;;;;;;2.13;1.57;;;7.00;99.90;;;;;;5053095;28;20408;-48
2022/02/06 08:02:06;;;;;;;2.97;1.80;;;7.00;99.90;;;;;;5053852;28;20450;-47
2022/02/06 08:04:33;;;;;;;3.10;1.90;;;7.20;99.90;;;;;;5053469;28;20746;-47
2022/02/06 08:07:00;;;;;;;1.67;1.33;;;7.20;99.90;;;;;;5053273;28;20424;-46
2022/02/06 08:09:45;;;;;;;5.23;1.60;;;7.20;99.90;;;;;;5052792;28;20416;-47
2022/02/06 08:12:12;;;;;;;3.20;1.50;;;7.20;99.90;;;;;;5053276;28;20958;-47
2022/02/06 08:14:54;;;;;;;5.53;2.30;;;7.10;99.90;;;;;;5052662;28;20506;-46
2022/02/06 08:17:23;;;;;;;4.57;1.73;;;7.30;99.90;;;;;;5053064;28;20441;-47
2022/02/06 08:19:49;;;;;;;2.90;1.50;;;7.30;99.90;;;;;;5052594;28;20431;-47
2022/02/06 08:22:16;;;;;;;1.93;1.70;;;7.30;99.90;;;;;;5053079;28;20419;-46
2022/02/06 08:24:45;;;;;;;3.77;2.00;;;7.30;99.90;;;;;;5076625;23;20406;-46
2022/02/06 08:27:11;;;;;;;2.20;1.63;;;7.10;99.90;;;;;;5031575;28;20500;-47
2022/02/06 08:29:41;;;;;;;3.20;2.00;;;7.30;99.90;;;;;;5032107;28;20965;-47
2022/02/06 08:32:08;;;;;;;4.47;1.80;;;7.30;99.90;;;;;;5032471;28;20414;-47
2022/02/06 08:34:35;;;;;;;3.90;1.73;;;7.30;99.90;;;;;;5031970;28;20456;-46
2022/02/06 08:37:03;;;;;;;3.53;1.80;;;7.30;99.90;;;;;;5013669;28;20436;-46
2022/02/06 08:39:31;;;;;;;3.13;2.00;;;7.40;99.90;;;;;;5012775;28;20448;-46
2022/02/06 08:41:59;;;;;;;3.20;1.93;;;7.40;99.90;;;;;;5013181;28;20481;-47
2022/02/06 08:44:26;;;;;;;4.90;2.23;;;7.40;99.90;;;;;;5013111;28;20416;-46
2022/02/06 08:46:53;;;;;;;3.97;2.13;;;7.50;99.90;;;;;;5012419;28;20458;-47
2022/02/06 08:49:20;;;;;;;3.60;1.90;;;7.50;99.90;;;;;;5011812;28;20466;-47
2022/02/06 08:51:47;;;;;;;7.03;2.17;;;7.50;99.90;;;;;;5012123;28;20436;-47
2022/02/06 08:54:14;;;;;;;4.23;2.20;;;7.50;99.90;;;;;;5011786;28;20433;-45
2022/02/06 08:56:41;;;;;;;3.00;2.07;;;7.50;99.90;;;;;;5012005;28;20489;-46
2022/02/06 08:59:09;;;;;;;5.00;2.37;;;7.60;99.90;;;;;;5011528;28;20468;-48
2022/02/06 09:01:37;;;;;;;2.90;1.77;;;7.60;99.90;;;;;;5011921;28;20418;-46
2022/02/06 09:04:04;;;;;;;2.17;1.73;;;7.70;99.90;;;;;;5011746;28;20514;-47
2022/02/06 09:06:31;;;;;;;3.23;1.87;;;7.60;99.90;;;;;;5012187;28;20831;-45
2022/02/06 09:09:00;;;;;;;4.70;1.87;;;7.80;99.90;;;;;;5011387;28;20402;-47
2022/02/06 09:11:29;;;;;;;2.50;1.80;;;7.80;99.90;;;;;;5011635;28;20422;-47
2022/02/06 09:13:56;;;;;;;2.57;1.80;;;7.70;99.90;;;;;;5011830;28;20819;-45
2022/02/06 09:16:26;;;;;;;3.93;1.97;;;7.80;99.90;;;;;;5011509;28;20486;-46
2022/02/06 09:18:52;;;;;;;3.10;1.73;;;7.80;99.90;;;;;;5011132;28;20526;-47
2022/02/06 09:21:21;;;;;;;3.80;1.90;;;7.80;99.90;;;;;;5012078;28;20411;-46
2022/02/06 09:23:47;;;;;;;3.57;2.00;;;7.80;99.90;;;;;;5011263;28;20432;-46
2022/02/06 09:26:14;;;;;;;4.23;2.03;;;7.90;99.90;;;;;;5011516;28;20450;-47
2022/02/06 09:28:41;;;;;;;1.97;1.60;;;8.00;99.90;;;;;;5011247;28;20502;-47
2022/02/06 09:31:09;;;;;;;4.57;1.70;;;8.00;99.90;;;;;;5011462;28;20437;-47
2022/02/06 09:36:03;;;;;;;4.53;1.40;;;8.10;99.90;;;;;;5010876;28;20494;-47
2022/02/06 09:38:30;;;;;;;7.00;1.63;;;8.10;99.90;;;;;;5010907;28;20605;-47
2022/02/06 09:40:56;;;;;;;3.73;1.70;;;8.20;99.90;;;;;;5011283;28;20423;-47
2022/02/06 09:43:23;;;;;;;1.90;1.40;;;8.20;99.90;;;;;;5011254;28;20920;-46
2022/02/06 09:45:50;;;;;;;2.70;1.80;;;8.30;99.90;;;;;;5011032;28;20431;-47
2022/02/06 09:48:17;;;;;;;3.00;1.97;;;8.30;99.90;;;;;;5010988;28;20900;-47
2022/02/06 09:50:46;;;;;;;3.43;2.37;;;8.30;99.90;;;;;;5010566;28;20444;-47
2022/02/06 09:53:12;;;;;;;2.00;1.80;;;8.40;99.90;;;;;;5010951;28;20813;-47
2022/02/06 09:55:42;;;;;;;4.40;2.23;;;8.40;99.90;;;;;;5010640;28;20919;-47
2022/02/06 09:58:29;;;;;;;4.10;2.30;;;8.30;99.90;;;;;;5010795;28;20523;-48
2022/02/06 10:00:55;;;;;;;3.40;2.00;;;8.50;99.90;;;;;;5010925;28;20440;-47
2022/02/06 10:03:23;;;;;;;3.57;2.57;;;8.60;99.90;;;;;;5011011;28;20424;-47
2022/02/06 10:05:52;;;;;;;4.40;3.10;;;8.50;99.90;;;;;;5010865;28;20471;-47
2022/02/06 10:08:28;;;;;;;3.23;2.50;;;8.60;99.90;;;;;;5010586;28;20459;-47
2022/02/06 10:10:59;;;;;;;4.10;2.60;;;8.60;99.90;;;;;;5011006;28;20406;-45
2022/02/06 10:13:26;;;;;;;3.80;2.07;;;8.60;99.90;;;;;;5010894;28;20531;-47
2022/02/06 10:15:53;;;;;;;7.03;2.50;;;8.70;99.90;;;;;;5011072;28;20498;-48
2022/02/06 10:18:20;;;;;;;4.10;2.77;;;8.70;99.90;;;;;;4993277;28;20808;-46
2022/02/06 10:20:47;;;;;;;7.70;3.20;;;8.80;99.90;;;;;;5010795;28;20411;-46
2022/02/06 10:23:30;;;;;;;4.87;2.40;;;8.80;99.90;;;;;;5010871;28;20415;-47
2022/02/06 10:26:06;;;;;;;3.10;2.20;;;8.80;99.90;;;;;;5010578;28;20976;-46
2022/02/06 10:28:40;;;;;;;3.00;1.93;;;8.60;99.90;;;;;;5010523;28;20440;-47
2022/02/06 10:31:08;;;;;;;5.00;2.30;;;8.80;99.90;;;;;;5011099;28;20528;-46
2022/02/06 10:33:47;;;;;;;4.30;2.10;;;8.90;99.90;;;;;;5010424;28;20976;-45
2022/02/06 10:36:16;;;;;;;3.97;2.43;;;8.90;99.90;;;;;;5013617;28;20476;-48
2022/02/06 10:38:47;;;;;;;4.30;2.30;;;8.90;99.90;;;;;;5014354;28;20819;-47
2022/02/06 10:41:16;;;;;;;2.27;1.80;;;8.90;99.90;;;;;;5014616;28;20499;-47
2022/02/06 10:43:55;;;;;;;3.20;1.83;;;8.90;99.90;;;;;;5015589;28;20939;-45
2022/02/06 10:46:24;;;;;;;5.57;2.10;;;8.90;99.90;;;;;;5015074;28;20456;-47
2022/02/06 10:48:53;;;;;;;5.00;2.00;;;9.00;99.90;;;;;;5014612;28;20428;-47
2022/02/06 10:51:39;;;;;;;2.93;1.70;;;9.00;99.90;;;;;;5014443;28;20440;-46
2022/02/06 10:54:09;;;;;;;2.93;1.80;;;9.00;99.90;;;;;;5014040;28;20875;-48
2022/02/06 10:56:40;;;;;;;2.90;1.87;;;9.10;99.90;;;;;;5014440;28;20458;-47
2022/02/06 10:59:08;;;;;;;3.67;2.33;;;9.20;99.90;;;;;;5013883;28;20427;-48
2022/02/06 11:01:39;;;;;;;3.20;1.73;;;9.00;99.90;;;;;;5014804;28;20450;-47
2022/02/06 11:04:16;;;;;;;2.60;1.97;;;9.20;99.90;;;;;;5014014;28;20905;-48
2022/02/06 11:06:45;;;;;;;3.67;2.10;;;9.20;99.90;;;;;;4996205;28;20484;-46
2022/02/06 11:09:27;;;;;;;4.00;1.90;;;9.20;99.90;;;;;;5013376;28;20440;-45
2022/02/06 11:11:55;;;;;;;2.80;1.90;;;9.30;99.90;;;;;;5013510;28;20415;-46
2022/02/06 11:14:25;;;;;;;3.33;2.20;;;9.30;99.90;;;;;;5013846;28;20437;-47
2022/02/06 11:16:52;;;;;;;2.87;1.70;;;9.30;99.90;;;;;;5013717;28;20502;-47
2022/02/06 11:19:20;;;;;;;2.50;1.77;;;9.40;99.90;;;;;;5013374;28;20493;-47
2022/02/06 11:21:47;;;;;;;4.70;1.70;;;9.30;99.90;;;;;;5013563;28;20472;-48
2022/02/06 11:24:21;;;;;;;4.10;3.50;;;9.30;99.90;;;;;;5013593;28;20407;-47
2022/02/06 11:26:49;;;;;;;3.40;1.60;;;9.30;99.90;;;;;;5013352;28;20582;-46
2022/02/06 11:29:16;;;;;;;3.30;1.47;;;9.30;99.90;;;;;;5013090;28;20913;-47
2022/02/06 11:31:42;;;;;;;2.47;1.70;;;9.40;99.90;;;;;;5013118;28;20448;-45
2022/02/06 11:34:15;;;;;;;2.00;1.40;;;9.40;99.90;;;;;;5013392;28;20458;-47
2022/02/06 11:45:22;;;;;;;2.13;1.60;;;9.50;99.90;;;;;;5012664;28;20543;-46
2022/02/06 11:47:53;;;;;;;2.53;1.53;;;9.40;99.90;;;;;;5013398;28;20403;-47
2022/02/06 11:50:20;;;;;;;4.40;2.37;;;9.40;99.90;;;;;;4995098;28;20448;-47
2022/02/06 11:52:55;;;;;;;2.43;1.70;;;9.40;99.90;;;;;;5013066;28;20433;-47
2022/02/06 11:55:32;;;;;;;2.70;1.70;;;9.50;99.90;;;;;;5013199;28;20803;-46
2022/02/06 11:58:25;;;;;;;2.73;1.50;;;9.40;99.90;;;;;;5013008;28;20421;-46
2022/02/06 12:01:20;;;;;;;2.20;1.57;;;9.50;99.90;;;;;;5012733;28;20456;-46
2022/02/06 12:03:52;;;;;;;3.10;1.70;;;9.50;99.90;;;;;;5013239;28;20442;-47
2022/02/06 12:06:20;;;;;;;2.90;1.97;;;9.50;99.90;;;;;;5012905;28;20972;-46
2022/02/06 12:09:11;;;;;;;2.63;1.67;;;9.50;99.90;;;;;;5012746;28;20436;-47
2022/02/06 12:11:37;;;;;;;2.63;1.43;;;9.50;99.90;;;;;;5013060;28;20444;-46
2022/02/06 12:14:13;;;;;;;2.30;1.30;;;9.30;99.90;;;;;;5013181;28;20445;-48
2022/02/06 12:16:50;;;;;;;2.03;1.50;;;9.40;99.90;;;;;;5013089;28;20485;-47
2022/02/06 12:19:28;;;;;;;5.07;2.10;;;9.40;99.90;;;;;;5012658;28;20830;-48
2022/02/06 12:21:55;;;;;;;2.27;1.97;;;9.40;99.90;;;;;;5013192;28;20436;-48
2022/02/06 12:24:41;;;;;;;2.63;1.80;;;9.50;99.90;;;;;;5012922;28;20512;-46
2022/02/06 12:27:22;;;;;;;1.73;1.60;;;9.50;99.90;;;;;;5012369;28;20475;-47
2022/02/06 12:29:52;;;;;;;3.43;1.50;;;9.50;99.90;;;;;;5012531;28;20418;-47
2022/02/06 12:32:33;;;;;;;2.57;1.50;;;9.50;99.90;;;;;;5012952;28;20433;-47
2022/02/06 12:37:46;;;;;;;3.23;1.60;;;9.50;99.90;;;;;;5012869;28;20594;-45
2022/02/06 12:40:14;;;;;;;2.43;1.70;;;9.50;99.90;;;;;;5012242;28;20483;-48
2022/02/06 12:42:43;;;;;;;2.63;1.60;;;9.50;99.90;;;;;;5012879;28;20432;-48
2022/02/06 12:45:13;;;;;;;3.03;1.77;;;9.50;99.90;;;;;;5012437;28;20491;-46
2022/02/06 12:47:43;;;;;;;2.77;1.70;;;9.50;99.90;;;;;;5012211;28;20436;-47
2022/02/06 12:50:17;;;;;;;2.60;2.17;;;9.50;99.90;;;;;;5012214;28;20465;-46
2022/02/06 12:52:44;;;;;;;2.47;1.43;;;9.60;99.90;;;;;;5012419;28;20511;-47
2022/02/06 12:55:12;;;;;;;2.40;1.50;;;9.90;99.90;;;;;;5012690;28;20957;-47
2022/02/06 12:57:48;;;;;;;2.67;1.70;;;9.50;99.90;;;;;;5011672;28;20822;-47
2022/02/06 13:00:27;;;;;;;3.30;1.20;;;9.50;99.90;;;;;;5012239;28;20956;-47
2022/02/06 13:03:15;;;;;;;3.37;2.03;;;9.50;99.90;;;;;;5012833;28;20878;-46
2022/02/06 13:05:50;;;;;;;3.77;1.87;;;9.50;99.90;;;;;;5012338;28;20571;-47
2022/02/06 13:08:17;;;;;;;1.80;1.20;;;9.50;99.90;;;;;;5011776;28;20464;-48
2022/02/06 13:10:50;;;;;;;3.30;2.23;;;9.50;99.90;;;;;;5011926;28;20440;-47
2022/02/06 13:13:19;;;;;;;2.40;1.60;;;9.60;99.90;;;;;;5012497;28;20441;-46
2022/02/06 13:16:00;;;;;;;3.23;1.83;;;9.40;99.90;;;;;;5012214;28;20946;-47
2022/02/06 13:19:08;;;;;;;1.90;1.50;;;9.60;99.90;;;;;;5011627;28;20444;-48
2022/02/06 13:21:48;;;;;;;1.50;1.20;;;9.60;99.90;;;;;;5012141;28;20441;-46
2022/02/06 13:24:25;;;;;;;2.10;1.17;;;9.50;99.90;;;;;;5012196;28;20439;-48
2022/02/06 13:27:06;;;;;;;1.80;1.60;;;9.50;99.90;;;;;;5011786;28;20472;-48
2022/02/06 13:29:37;;;;;;;2.83;1.47;;;9.50;99.90;;;;;;5011329;28;20490;-47
2022/02/06 13:32:22;;;;;;;3.60;1.73;;;9.50;99.90;;;;;;5011756;28;20444;-46
2022/02/06 13:35:05;;;;;;;3.90;1.50;;;9.50;99.90;;;;;;5011804;28;20446;-47
2022/02/06 13:37:43;;;;;;;1.87;1.00;;;9.40;99.90;;;;;;5012482;28;20810;-45
2022/02/06 13:40:16;;;;;;;1.83;1.37;;;9.40;99.90;;;;;;5012290;28;20467;-48
2022/02/06 13:42:58;;;;;;;2.03;1.60;;;9.40;99.90;;;;;;5011422;28;20820;-47
2022/02/06 13:45:27;;;;;;;3.40;1.50;;;9.40;99.90;;;;;;5011294;28;20900;-47
2022/02/06 13:47:56;;;;;;;2.10;1.47;;;9.30;99.90;;;;;;5011647;28;20455;-46
2022/02/06 13:50:24;;;;;;;4.73;2.47;;;9.30;99.90;;;;;;5012694;28;20462;-48
2022/02/06 13:53:06;;;;;;;3.70;2.00;;;9.20;99.90;;;;;;5013828;28;20417;-46
2022/02/06 13:55:33;;;;;;;3.07;1.63;;;9.30;99.90;;;;;;5012948;28;20506;-47
2022/02/06 13:58:00;;;;;;;3.90;2.23;;;9.20;99.90;;;;;;5013181;28;20526;-47
2022/02/06 14:00:26;;;;;;;5.10;2.47;;;9.20;99.90;;;;;;5012024;28;20680;-46
2022/02/06 14:02:56;;;;;;;3.73;2.00;;;9.20;99.90;;;;;;5011564;28;20451;-47
2022/02/06 14:05:26;;;;;;;2.23;1.90;;;9.20;99.90;;;;;;5011210;28;20456;-48
2022/02/06 14:08:08;;;;;;;2.13;1.50;;;9.20;99.90;;;;;;5011450;28;20460;-47
2022/02/06 14:10:45;;;;;;;1.97;1.30;;;9.20;99.90;;;;;;5011216;28;20464;-45
2022/02/06 14:13:22;;;;;;;2.50;1.37;;;9.20;99.90;;;;;;5011626;28;20779;-48
2022/02/06 14:15:50;;;;;;;1.70;1.17;;;9.10;99.90;;;;;;5011096;28;20495;-49
2022/02/06 14:18:18;;;;;;;2.07;1.30;;;9.10;99.90;;;;;;5011118;28;20490;-46
2022/02/06 14:20:56;;;;;;;2.20;1.30;;;8.80;99.90;;;;;;5011066;28;20468;-46
2022/02/06 14:23:23;;;;;;;1.70;1.13;;;9.00;99.90;;;;;;5011318;28;20437;-46
2022/02/06 14:25:49;;;;;;;1.50;1.40;;;8.90;99.90;;;;;;5032851;23;20498;-52
2022/02/06 14:28:18;;;;;;;2.07;1.40;;;8.90;99.90;;;;;;5050584;28;20449;-51
2022/02/06 14:30:44;;;;;;;1.70;1.20;;;8.90;99.90;;;;;;5049425;28;20443;-51
2022/02/06 14:33:13;;;;;;;1.77;1.40;;;8.90;99.90;;;;;;5048788;28;21006;-52